sensor_id;sensor_type;location;lat;lon;timestamp;P1;durP1;ratioP1;P2;durP2;ratioP2
58770;SDS011;44539;42.962;1.596;2022-09-03T07:11:40;4.43;;;2.95;;
58770;SDS011;44539;42.962;1.596;2022-09-03T07:14:10;4.78;;;3.30;;
58770;SDS011;44539;42.962;1.596;2022-09-03T07:16:36;7.95;;;3.13;;
58770;SDS011;44539;42.962;1.596;2022-09-03T07:19:02;8.80;;;3.15;;
58770;SDS011;44539;42.962;1.596;2022-09-03T07:21:30;5.00;;;3.03;;
58770;SDS011;44539;42.962;1.596;2022-09-03T07:23:58;6.53;;;3.22;;
58770;SDS011;44539;42.962;1.596;2022-09-03T07:26:25;4.50;;;2.83;;
58770;SDS011;44539;42.962;1.596;2022-09-03T07:28:52;4.50;;;3.28;;
58770;SDS011;44539;42.962;1.596;2022-09-03T07:31:26;5.60;;;3.70;;
58770;SDS011;44539;42.962;1.596;2022-09-03T07:36:23;6.97;;;3.80;;
58770;SDS011;44539;42.962;1.596;2022-09-03T07:38:50;5.43;;;3.70;;
58770;SDS011;44539;42.962;1.596;2022-09-03T07:41:19;4.35;;;3.10;;
58770;SDS011;44539;42.962;1.596;2022-09-03T07:43:45;5.97;;;3.20;;
58770;SDS011;44539;42.962;1.596;2022-09-03T07:46:15;5.75;;;3.60;;
58770;SDS011;44539;42.962;1.596;2022-09-03T07:51:22;5.60;;;3.50;;
58770;SDS011;44539;42.962;1.596;2022-09-03T07:53:51;5.45;;;3.47;;
58770;SDS011;44539;42.962;1.596;2022-09-03T07:56:17;5.10;;;3.38;;
58770;SDS011;44539;42.962;1.596;2022-09-03T07:58:43;8.05;;;3.53;;
58770;SDS011;44539;42.962;1.596;2022-09-03T08:01:09;6.07;;;3.40;;
58770;SDS011;44539;42.962;1.596;2022-09-03T08:03:36;4.00;;;3.00;;
58770;SDS011;44539;42.962;1.596;2022-09-03T08:06:04;5.18;;;3.00;;
58770;SDS011;44539;42.962;1.596;2022-09-03T08:08:31;4.53;;;3.00;;
58770;SDS011;44539;42.962;1.596;2022-09-03T08:11:04;7.70;;;3.30;;
58770;SDS011;44539;42.962;1.596;2022-09-03T08:16:04;6.57;;;3.20;;
58770;SDS011;44539;42.962;1.596;2022-09-03T08:18:31;3.70;;;3.00;;
58770;SDS011;44539;42.962;1.596;2022-09-03T08:21:01;6.20;;;3.08;;
58770;SDS011;44539;42.962;1.596;2022-09-03T08:23:31;4.60;;;3.30;;
58770;SDS011;44539;42.962;1.596;2022-09-03T08:25:58;7.72;;;3.28;;
58770;SDS011;44539;42.962;1.596;2022-09-03T08:28:25;5.75;;;2.70;;
58770;SDS011;44539;42.962;1.596;2022-09-03T08:30:51;5.53;;;2.92;;
58770;SDS011;44539;42.962;1.596;2022-09-03T08:33:16;5.68;;;2.63;;
58770;SDS011;44539;42.962;1.596;2022-09-03T08:36:02;5.72;;;2.97;;
58770;SDS011;44539;42.962;1.596;2022-09-03T08:38:33;3.72;;;2.60;;
58770;SDS011;44539;42.962;1.596;2022-09-03T08:41:06;4.40;;;2.40;;
58770;SDS011;44539;42.962;1.596;2022-09-03T08:43:55;4.18;;;2.53;;
58770;SDS011;44539;42.962;1.596;2022-09-03T08:49:26;3.88;;;2.65;;
58770;SDS011;44539;42.962;1.596;2022-09-03T08:52:00;3.20;;;2.35;;
58770;SDS011;44539;42.962;1.596;2022-09-03T08:54:29;4.13;;;2.70;;
58770;SDS011;44539;42.962;1.596;2022-09-03T08:56:57;3.05;;;2.30;;
58770;SDS011;44539;42.962;1.596;2022-09-03T08:59:25;3.63;;;2.58;;
58770;SDS011;44539;42.962;1.596;2022-09-03T09:01:54;3.60;;;2.35;;
58770;SDS011;44539;42.962;1.596;2022-09-03T09:12:30;2.90;;;2.05;;
58770;SDS011;44539;42.962;1.596;2022-09-03T09:15:07;6.20;;;2.30;;
58770;SDS011;44539;42.962;1.596;2022-09-03T09:21:30;3.25;;;2.10;;
58770;SDS011;44539;42.962;1.596;2022-09-03T09:23:56;3.15;;;2.08;;
58770;SDS011;44539;42.962;1.596;2022-09-03T09:26:27;2.83;;;1.83;;
58770;SDS011;44539;42.962;1.596;2022-09-03T09:29:14;3.03;;;2.00;;
58770;SDS011;44539;42.962;1.596;2022-09-03T09:31:39;2.78;;;2.10;;
58770;SDS011;44539;42.962;1.596;2022-09-03T09:34:09;5.38;;;2.45;;
58770;SDS011;44539;42.962;1.596;2022-09-03T09:36:56;3.15;;;2.00;;
58770;SDS011;44539;42.962;1.596;2022-09-03T09:39:21;4.45;;;2.05;;
58770;SDS011;44539;42.962;1.596;2022-09-03T09:42:00;3.80;;;2.13;;
58770;SDS011;44539;42.962;1.596;2022-09-03T09:44:33;3.72;;;2.28;;
58770;SDS011;44539;42.962;1.596;2022-09-03T09:47:07;4.28;;;2.10;;
58770;SDS011;44539;42.962;1.596;2022-09-03T09:49:59;2.40;;;2.03;;
58770;SDS011;44539;42.962;1.596;2022-09-03T09:52:25;2.50;;;2.03;;
58770;SDS011;44539;42.962;1.596;2022-09-03T09:54:53;3.13;;;2.20;;
58770;SDS011;44539;42.962;1.596;2022-09-03T09:57:32;3.67;;;2.15;;
58770;SDS011;44539;42.962;1.596;2022-09-03T10:00:05;4.32;;;2.13;;
58770;SDS011;44539;42.962;1.596;2022-09-03T10:02:37;3.35;;;2.00;;
58770;SDS011;44539;42.962;1.596;2022-09-03T10:07:55;3.58;;;2.00;;
58770;SDS011;44539;42.962;1.596;2022-09-03T10:10:23;2.72;;;1.90;;
58770;SDS011;44539;42.962;1.596;2022-09-03T10:12:57;3.22;;;2.42;;
58770;SDS011;44539;42.962;1.596;2022-09-03T10:15:32;3.70;;;2.35;;
58770;SDS011;44539;42.962;1.596;2022-09-03T10:26:44;3.33;;;1.83;;
58770;SDS011;44539;42.962;1.596;2022-09-03T10:29:10;2.47;;;1.88;;
58770;SDS011;44539;42.962;1.596;2022-09-03T10:34:26;3.15;;;2.00;;
58770;SDS011;44539;42.962;1.596;2022-09-03T10:48:19;3.17;;;1.80;;
58770;SDS011;44539;42.962;1.596;2022-09-03T10:50:57;2.70;;;1.70;;
58770;SDS011;44539;42.962;1.596;2022-09-03T10:53:40;2.80;;;1.77;;
58770;SDS011;44539;42.962;1.596;2022-09-03T11:07:27;2.25;;;1.63;;
58770;SDS011;44539;42.962;1.596;2022-09-03T11:10:11;2.10;;;1.55;;
58770;SDS011;44539;42.962;1.596;2022-09-03T11:12:43;2.28;;;1.63;;
58770;SDS011;44539;42.962;1.596;2022-09-03T11:20:44;2.92;;;1.80;;
